Time;durP1;ratioP1;P1;durP2;ratioP2;P2;SDS_P1;SDS_P2;PMS_P1;PMS_P2;Temp;Humidity;BMP_temperature;BMP_pressure;BME280_temperature;BME280_humidity;BME280_pressure;Samples;Min_cycle;Max_cycle;Signal;HPM_P1;HPM_P2
2021/08/06 00:00:50;;;;;;;3.28;2.70;;;;;;;18.70;99.50;98359.59;5016200;28;20476;-71
2021/08/06 00:03:17;;;;;;;4.50;3.10;;;;;;;18.61;99.78;98351.56;5015768;28;20260;-72
2021/08/06 00:05:43;;;;;;;3.40;3.10;;;;;;;18.75;99.15;98354.47;5016141;28;20189;-72
2021/08/06 00:08:10;;;;;;;3.78;2.72;;;;;;;18.75;99.21;98350.91;5016203;28;20194;-72
2021/08/06 00:10:37;;;;;;;4.45;3.28;;;;;;;18.62;100.00;98350.56;5015512;28;20212;-72
2021/08/06 00:13:03;;;;;;;3.67;3.20;;;;;;;18.84;98.66;98354.50;5015548;28;20191;-72
2021/08/06 00:15:30;;;;;;;4.10;3.65;;;;;;;18.83;98.48;98344.63;5015811;28;20575;-72
2021/08/06 00:17:58;;;;;;;3.70;3.40;;;;;;;18.73;100.00;98344.78;5015669;28;20240;-72
2021/08/06 00:20:25;;;;;;;3.08;2.78;;;;;;;18.67;100.00;98340.00;5015599;28;20201;-72
2021/08/06 00:22:51;;;;;;;5.18;2.83;;;;;;;18.72;98.88;98341.19;5015975;28;20289;-73
2021/08/06 00:25:18;;;;;;;3.20;2.90;;;;;;;18.76;98.71;98341.69;5015803;28;20539;-72
2021/08/06 00:27:45;;;;;;;3.70;2.47;;;;;;;18.74;98.97;98341.00;5015490;28;20366;-72
2021/08/06 00:30:12;;;;;;;3.22;2.70;;;;;;;18.82;98.60;98332.00;5016965;28;20208;-72
2021/08/06 00:32:39;;;;;;;3.00;2.72;;;;;;;18.72;98.37;98335.75;5015928;28;20277;-73
2021/08/06 00:35:08;;;;;;;3.97;2.78;;;;;;;18.72;98.42;98334.88;5015652;28;20641;-73
2021/08/06 00:37:35;;;;;;;3.42;2.70;;;;;;;18.81;97.32;98328.41;5015695;28;20202;-72
2021/08/06 00:40:02;;;;;;;4.38;3.50;;;;;;;18.79;97.17;98329.63;5015641;28;20709;-72
2021/08/06 00:42:28;;;;;;;3.75;3.13;;;;;;;18.79;97.10;98321.44;5019828;28;20284;-72
2021/08/06 00:44:55;;;;;;;3.42;3.13;;;;;;;18.81;97.88;98328.41;5035048;28;20217;-72
2021/08/06 00:47:22;;;;;;;3.03;2.75;;;;;;;18.93;96.39;98324.31;5035062;28;20606;-72
2021/08/06 00:49:49;;;;;;;6.72;3.13;;;;;;;18.69;97.04;98316.16;5035255;28;20635;-72
2021/08/06 00:52:17;;;;;;;3.58;3.20;;;;;;;18.61;98.52;98314.28;5034722;28;20207;-72
2021/08/06 00:54:43;;;;;;;4.50;3.50;;;;;;;18.65;99.66;98309.31;5034973;28;20308;-73
2021/08/06 00:57:12;;;;;;;3.63;3.30;;;;;;;18.66;99.30;98309.16;5034799;28;20198;-72
2021/08/06 00:59:39;;;;;;;5.45;3.40;;;;;;;18.67;99.73;98312.72;5034664;28;20186;-71
2021/08/06 01:02:11;;;;;;;3.58;3.00;;;;;;;18.69;99.23;98317.00;5034484;28;20694;-72
2021/08/06 01:04:45;;;;;;;3.80;3.10;;;;;;;18.72;99.43;98330.28;5034485;28;20192;-71
2021/08/06 01:07:19;;;;;;;4.25;3.13;;;;;;;18.66;100.00;98325.53;5034301;28;20236;-72
2021/08/06 01:09:52;;;;;;;3.80;3.40;;;;;;;18.72;99.77;98323.97;5034734;28;20519;-73
2021/08/06 01:12:24;;;;;;;4.40;3.37;;;;;;;18.71;99.96;98317.66;5023460;28;20217;-72
2021/08/06 01:14:51;;;;;;;5.70;3.70;;;;;;;18.76;100.00;98317.16;5034536;28;20547;-73
2021/08/06 01:17:22;;;;;;;5.32;3.80;;;;;;;18.73;100.00;98317.50;5034619;28;20209;-72
2021/08/06 01:19:57;;;;;;;4.00;3.70;;;;;;;18.79;100.00;98313.25;5034877;28;20186;-72
2021/08/06 01:22:31;;;;;;;3.83;3.53;;;;;;;18.77;100.00;98308.00;5034568;28;20272;-72
2021/08/06 01:25:06;;;;;;;5.43;3.37;;;;;;;18.79;100.00;98308.69;5033759;28;20285;-72
2021/08/06 01:27:36;;;;;;;3.83;3.40;;;;;;;18.76;100.00;98306.25;5034731;28;20919;-72
2021/08/06 01:30:06;;;;;;;5.13;3.77;;;;;;;18.85;100.00;98307.13;5034455;28;20432;-72
2021/08/06 01:32:33;;;;;;;3.50;3.20;;;;;;;18.78;100.00;98301.50;5034030;28;20434;-73
2021/08/06 01:35:00;;;;;;;5.40;3.95;;;;;;;18.72;100.00;98304.88;5034542;28;20220;-71
2021/08/06 01:37:26;;;;;;;5.82;3.80;;;;;;;18.90;100.00;98305.59;5034203;28;20605;-71
2021/08/06 01:39:54;;;;;;;3.95;3.47;;;;;;;18.78;100.00;98306.97;5033663;28;20296;-71
2021/08/06 01:42:31;;;;;;;5.47;3.90;;;;;;;18.84;100.00;98306.28;5019938;28;20200;-72
2021/08/06 01:44:59;;;;;;;4.93;3.42;;;;;;;18.80;100.00;98301.34;5014306;28;20186;-73
2021/08/06 01:47:30;;;;;;;6.50;3.08;;;;;;;18.35;100.00;98303.56;5014162;28;20647;-72
2021/08/06 01:50:00;;;;;;;5.50;3.70;;;;;;;18.53;100.00;98293.31;5013757;28;20194;-73
2021/08/06 01:52:30;;;;;;;6.75;3.53;;;;;;;18.64;100.00;98294.84;5013992;28;20280;-73
2021/08/06 01:55:02;;;;;;;3.60;3.20;;;;;;;18.72;100.00;98297.56;5013966;28;20634;-72
2021/08/06 01:57:30;;;;;;;3.92;3.10;;;;;;;18.65;100.00;98295.69;5014132;28;20193;-72
2021/08/06 02:00:00;;;;;;;2.65;2.45;;;;;;;18.61;100.00;98297.06;5013964;28;20197;-72
2021/08/06 02:02:27;;;;;;;3.80;2.55;;;;;;;18.80;100.00;98293.16;5013842;28;20244;-70
2021/08/06 02:04:54;;;;;;;3.88;2.67;;;;;;;18.81;99.89;98301.16;5014376;28;20186;-72
2021/08/06 02:07:21;;;;;;;3.05;2.47;;;;;;;18.81;99.63;98300.31;5014107;28;20209;-73
2021/08/06 02:09:48;;;;;;;3.30;3.10;;;;;;;18.75;98.84;98299.09;5013686;28;20617;-73
2021/08/06 02:12:15;;;;;;;4.50;3.15;;;;;;;18.57;100.00;98296.56;5014055;28;20541;-73
2021/08/06 02:14:43;;;;;;;6.05;2.60;;;;;;;18.67;100.00;98301.84;5013618;28;20233;-71
2021/08/06 02:17:13;;;;;;;3.50;2.50;;;;;;;18.76;98.91;98298.06;5013309;28;20201;-73
2021/08/06 02:19:41;;;;;;;3.00;2.70;;;;;;;18.80;98.54;98296.72;5013737;28;20212;-73
2021/08/06 02:22:09;;;;;;;6.47;2.75;;;;;;;18.87;98.20;98295.00;5014870;28;20528;-73
2021/08/06 02:24:37;;;;;;;3.00;2.30;;;;;;;18.77;98.67;98288.91;5013329;28;20183;-72
2021/08/06 02:27:05;;;;;;;3.50;2.60;;;;;;;18.80;100.00;98277.66;5013622;28;20858;-73
2021/08/06 02:29:32;;;;;;;3.70;2.75;;;;;;;18.93;97.95;98288.88;5013695;28;20202;-73
2021/08/06 02:32:00;;;;;;;3.72;2.45;;;;;;;18.85;99.46;98283.41;5013573;28;20190;-73
2021/08/06 02:34:29;;;;;;;4.13;3.50;;;;;;;18.86;98.77;98287.88;5013667;28;20277;-73
2021/08/06 02:36:55;;;;;;;3.47;3.17;;;;;;;18.77;100.00;98288.91;5028468;28;20536;-72
2021/08/06 02:39:25;;;;;;;4.65;2.92;;;;;;;18.80;99.86;98280.38;5037272;28;20429;-72
2021/08/06 02:41:52;;;;;;;3.35;2.55;;;;;;;18.86;99.60;98278.81;5037495;28;20341;-72
2021/08/06 02:44:19;;;;;;;3.70;2.70;;;;;;;18.68;99.70;98273.56;5036871;28;20293;-73
2021/08/06 02:46:45;;;;;;;4.25;2.60;;;;;;;18.65;98.49;98274.72;5036884;28;20510;-73
2021/08/06 02:49:12;;;;;;;3.55;2.67;;;;;;;18.57;99.68;98271.19;5037139;28;20282;-72
2021/08/06 02:51:40;;;;;;;4.97;2.70;;;;;;;18.67;98.76;98271.84;5036910;28;20335;-71
2021/08/06 02:54:07;;;;;;;4.30;2.50;;;;;;;18.66;98.13;98271.00;5018323;28;20558;-72
2021/08/06 02:56:34;;;;;;;3.65;3.35;;;;;;;18.54;100.00;98272.38;5017212;28;20241;-73
2021/08/06 02:59:00;;;;;;;3.15;2.83;;;;;;;18.57;99.02;98272.03;5016986;28;20209;-73
2021/08/06 03:01:27;;;;;;;3.97;3.20;;;;;;;18.40;99.11;98268.47;5027666;28;20197;-71
2021/08/06 03:03:53;;;;;;;3.55;3.08;;;;;;;18.58;99.00;98278.34;5036999;28;20196;-72
2021/08/06 03:06:20;;;;;;;4.75;3.20;;;;;;;18.47;100.00;98268.63;5036585;28;20211;-72
2021/08/06 03:08:48;;;;;;;3.00;2.70;;;;;;;18.40;100.00;98259.44;5036539;28;20192;-72
2021/08/06 03:11:15;;;;;;;4.93;2.85;;;;;;;18.41;100.00;98259.28;5036205;28;20197;-72
2021/08/06 03:13:41;;;;;;;3.22;2.85;;;;;;;18.54;100.00;98266.91;5036729;28;20190;-71
2021/08/06 03:16:08;;;;;;;3.33;2.75;;;;;;;18.55;99.03;98266.75;5036207;28;20774;-72
2021/08/06 03:18:35;;;;;;;4.05;3.10;;;;;;;18.59;99.28;98266.38;5036784;28;20538;-72
2021/08/06 03:21:01;;;;;;;3.83;2.55;;;;;;;18.54;100.00;98264.19;5036242;28;20287;-72
2021/08/06 03:23:28;;;;;;;3.60;2.40;;;;;;;18.59;100.00;98261.81;5034561;28;20204;-72
2021/08/06 03:25:56;;;;;;;3.60;2.50;;;;;;;18.58;98.27;98261.97;5036275;28;20627;-72
2021/08/06 03:28:22;;;;;;;3.88;2.60;;;;;;;18.65;97.85;98268.44;5036375;28;20209;-72
2021/08/06 03:30:49;;;;;;;3.95;2.60;;;;;;;18.69;98.28;98269.78;5036394;28;20293;-73
2021/08/06 03:33:15;;;;;;;2.67;2.47;;;;;;;18.64;98.81;98261.31;5036159;28;20207;-73
2021/08/06 03:35:42;;;;;;;3.03;2.83;;;;;;;18.64;99.57;98261.31;5035747;28;20254;-72
2021/08/06 03:38:17;;;;;;;3.90;3.00;;;;;;;18.55;99.56;98258.56;5032137;28;20296;-72
2021/08/06 03:40:44;;;;;;;2.95;2.60;;;;;;;18.60;99.32;98249.03;5035325;28;20529;-72
2021/08/06 03:43:12;;;;;;;4.25;2.90;;;;;;;18.55;99.68;98255.00;5035820;28;20208;-72
2021/08/06 03:45:39;;;;;;;3.38;3.05;;;;;;;18.59;100.00;98253.63;5035901;28;20276;-72
2021/08/06 03:48:05;;;;;;;3.85;2.95;;;;;;;18.68;99.02;98254.47;5034854;28;20225;-71
2021/08/06 03:50:32;;;;;;;3.40;3.10;;;;;;;18.62;100.00;98261.47;5035876;28;20189;-73
2021/08/06 03:52:59;;;;;;;5.63;2.92;;;;;;;18.55;100.00;98271.34;5018338;28;20205;-73
2021/08/06 03:55:25;;;;;;;5.00;3.15;;;;;;;18.50;100.00;98263.69;5015648;28;20205;-73
2021/08/06 03:57:53;;;;;;;4.38;3.95;;;;;;;18.66;100.00;98262.81;5015829;28;20190;-72
2021/08/06 04:00:22;;;;;;;3.83;3.40;;;;;;;18.67;99.27;98263.66;5016028;28;20592;-72
2021/08/06 04:02:49;;;;;;;3.55;3.25;;;;;;;18.63;99.37;98245.94;5015400;28;20237;-72
2021/08/06 04:05:16;;;;;;;4.00;3.60;;;;;;;18.53;100.00;98255.16;5016127;28;20187;-72
2021/08/06 04:07:43;;;;;;;4.97;3.40;;;;;;;18.49;100.00;98256.53;5015986;28;20598;-73
2021/08/06 04:10:11;;;;;;;4.25;3.10;;;;;;;18.58;100.00;98257.38;5015956;28;20186;-72
2021/08/06 04:12:38;;;;;;;4.78;4.35;;;;;;;18.50;100.00;98260.97;5015844;28;20319;-72
2021/08/06 04:15:06;;;;;;;4.25;3.85;;;;;;;18.50;100.00;98252.78;5015191;28;20301;-73
2021/08/06 04:17:35;;;;;;;5.07;3.80;;;;;;;18.50;100.00;98257.41;5015518;28;20202;-73
2021/08/06 04:20:01;;;;;;;4.95;3.40;;;;;;;18.47;100.00;98260.44;5015130;28;20204;-73
2021/08/06 04:22:28;;;;;;;5.45;3.22;;;;;;;18.53;100.00;98266.06;5015461;28;20193;-73
2021/08/06 04:24:55;;;;;;;4.85;4.32;;;;;;;18.55;100.00;98264.03;5015118;28;20325;-73
2021/08/06 04:27:21;;;;;;;3.88;3.40;;;;;;;18.64;100.00;98273.03;5020705;28;20280;-74
2021/08/06 04:29:48;;;;;;;4.45;3.40;;;;;;;18.59;100.00;98271.84;5034693;28;20294;-72
2021/08/06 04:32:15;;;;;;;5.50;3.30;;;;;;;18.65;99.93;98274.72;5034882;28;20543;-73
2021/08/06 04:34:42;;;;;;;4.35;3.80;;;;;;;18.62;100.00;98271.53;5034911;28;20292;-73
2021/08/06 04:37:09;;;;;;;4.32;3.70;;;;;;;18.55;99.74;98272.19;5034832;28;20354;-72
2021/08/06 04:39:36;;;;;;;7.80;3.65;;;;;;;18.55;99.91;98269.47;5034775;28;20542;-73
2021/08/06 04:42:02;;;;;;;5.40;3.40;;;;;;;18.63;99.79;98275.94;5033076;28;20280;-73
2021/08/06 04:44:31;;;;;;;6.28;3.58;;;;;;;18.75;99.50;98271.84;5014889;28;20741;-71
2021/08/06 04:46:57;;;;;;;3.80;3.38;;;;;;;18.71;99.79;98276.78;5014816;28;20189;-71
2021/08/06 04:49:24;;;;;;;4.15;3.55;;;;;;;18.73;100.00;98288.38;5015009;28;20666;-72
2021/08/06 04:51:52;;;;;;;3.33;3.03;;;;;;;18.71;100.00;98281.38;5015958;28;20293;-72
2021/08/06 04:54:18;;;;;;;5.68;3.95;;;;;;;18.69;100.00;98292.44;5028721;28;20604;-72
2021/08/06 04:56:45;;;;;;;6.47;3.22;;;;;;;18.62;100.00;98286.00;5030853;28;20658;-71
2021/08/06 04:59:12;;;;;;;5.07;4.07;;;;;;;18.69;100.00;98286.16;5023195;28;20658;-72
2021/08/06 05:01:38;;;;;;;4.47;3.95;;;;;;;18.66;100.00;98291.97;5024026;28;20571;-72
2021/08/06 05:04:05;;;;;;;4.30;4.00;;;;;;;18.54;100.00;98289.59;5033659;28;20207;-71
2021/08/06 05:06:32;;;;;;;5.00;3.25;;;;;;;18.59;100.00;98285.47;5033918;28;20185;-72
2021/08/06 05:09:00;;;;;;;5.53;3.65;;;;;;;18.62;100.00;98291.44;5034349;28;20536;-72
2021/08/06 05:11:27;;;;;;;3.83;3.40;;;;;;;18.61;100.00;98292.47;5017218;28;20666;-72
2021/08/06 05:13:54;;;;;;;4.35;3.47;;;;;;;18.31;100.00;98289.41;5014501;28;20201;-72
2021/08/06 05:16:20;;;;;;;4.38;3.97;;;;;;;18.43;100.00;98289.06;5014501;28;20639;-72
2021/08/06 05:18:47;;;;;;;4.00;3.60;;;;;;;18.55;100.00;98294.00;5014470;28;20719;-71
2021/08/06 05:21:14;;;;;;;4.78;3.80;;;;;;;18.54;100.00;98294.16;5014379;28;20199;-72
2021/08/06 05:23:40;;;;;;;3.88;3.45;;;;;;;18.66;100.00;98302.88;5014463;28;20306;-73
2021/08/06 05:26:08;;;;;;;7.40;4.68;;;;;;;18.69;100.00;98294.34;5013743;28;20277;-72
2021/08/06 05:28:35;;;;;;;6.90;4.55;;;;;;;18.60;99.95;98296.22;5014291;28;20215;-72
2021/08/06 05:31:01;;;;;;;5.53;3.63;;;;;;;18.47;100.00;98304.91;5013972;28;20284;-72
2021/08/06 05:33:28;;;;;;;4.95;4.22;;;;;;;18.46;100.00;98307.81;5013836;28;20230;-72
2021/08/06 05:35:54;;;;;;;3.33;3.03;;;;;;;18.50;99.18;98310.03;5013600;28;20276;-72
2021/08/06 05:38:21;;;;;;;5.30;3.45;;;;;;;18.44;99.45;98305.25;5029571;28;20646;-71
2021/08/06 05:40:48;;;;;;;3.95;2.85;;;;;;;18.47;98.66;98318.53;5020569;28;20595;-72
2021/08/06 05:43:16;;;;;;;4.07;2.80;;;;;;;18.59;98.22;98323.63;5033222;28;20216;-72
2021/08/06 05:45:43;;;;;;;5.35;3.20;;;;;;;18.65;95.86;98322.97;5023086;28;20204;-72
2021/08/06 05:48:13;;;;;;;3.85;3.55;;;;;;;18.58;96.43;98327.41;5013789;28;20580;-73
2021/08/06 05:50:41;;;;;;;5.18;2.65;;;;;;;18.61;95.87;98325.19;5013550;28;20211;-73
2021/08/06 05:53:08;;;;;;;4.80;2.80;;;;;;;18.57;95.27;98325.72;5013843;28;20200;-73
2021/08/06 05:55:35;;;;;;;4.28;3.20;;;;;;;18.70;95.74;98324.16;5013463;28;20296;-73
2021/08/06 05:58:01;;;;;;;3.95;3.30;;;;;;;18.88;94.04;98326.72;5024621;28;20292;-73
2021/08/06 06:00:29;;;;;;;4.55;2.65;;;;;;;18.57;93.50;98325.72;5033305;28;20197;-73
2021/08/06 06:02:56;;;;;;;5.57;2.40;;;;;;;18.57;93.63;98322.97;5032993;28;20263;-72
2021/08/06 06:05:22;;;;;;;3.40;2.60;;;;;;;18.47;95.54;98325.84;5019737;28;20200;-71
2021/08/06 06:07:50;;;;;;;6.07;2.70;;;;;;;18.68;94.04;98325.34;5013496;28;20231;-73
2021/08/06 06:10:20;;;;;;;3.95;3.05;;;;;;;18.82;93.64;98330.13;5012549;28;20212;-73
2021/08/06 06:12:46;;;;;;;3.60;2.25;;;;;;;19.03;91.80;98321.41;5013828;28;20194;-72
2021/08/06 06:15:13;;;;;;;3.00;2.15;;;;;;;19.19;88.49;98327.84;5013263;28;20594;-72
2021/08/06 06:17:41;;;;;;;3.50;2.00;;;;;;;19.33;87.96;98325.25;5013097;28;20652;-72
2021/08/06 06:20:09;;;;;;;7.88;2.67;;;;;;;19.12;88.91;98335.88;5025639;28;20200;-72
2021/08/06 06:22:35;;;;;;;3.85;2.20;;;;;;;19.11;90.16;98329.56;5031001;28;20193;-73
2021/08/06 06:25:02;;;;;;;4.13;2.20;;;;;;;19.22;89.04;98333.81;5032707;28;20211;-71
2021/08/06 06:27:29;;;;;;;4.15;2.50;;;;;;;19.05;88.70;98337.59;5033015;28;20181;-72
2021/08/06 06:29:55;;;;;;;2.60;2.40;;;;;;;19.02;88.90;98351.59;5032920;28;20633;-72
2021/08/06 06:32:22;;;;;;;4.40;3.07;;;;;;;19.17;89.24;98349.81;5033152;28;20420;-73
2021/08/06 06:34:50;;;;;;;4.50;2.10;;;;;;;19.25;88.11;98349.81;5033077;28;20786;-73
2021/08/06 06:37:17;;;;;;;2.50;1.90;;;;;;;19.31;87.42;98346.41;5019326;28;20567;-74
2021/08/06 06:39:43;;;;;;;5.30;2.55;;;;;;;19.45;86.57;98352.16;5013287;28;20483;-73
2021/08/06 06:42:10;;;;;;;4.40;3.17;;;;;;;19.55;85.04;98348.16;5013518;28;20684;-72
2021/08/06 06:44:38;;;;;;;5.25;3.13;;;;;;;19.67;85.04;98351.38;5013387;28;20441;-72
2021/08/06 06:47:05;;;;;;;3.90;2.28;;;;;;;19.87;84.25;98356.41;5013330;28;20215;-72
2021/08/06 06:49:31;;;;;;;5.10;2.17;;;;;;;19.67;84.34;98365.03;5012806;28;20272;-73
2021/08/06 06:51:59;;;;;;;4.78;2.22;;;;;;;19.51;85.09;98359.63;5014047;28;20914;-72
2021/08/06 06:54:26;;;;;;;4.27;2.10;;;;;;;19.40;85.73;98373.63;5013692;28;20278;-73
2021/08/06 06:56:53;;;;;;;2.40;2.10;;;;;;;19.51;85.44;98368.66;5022045;28;20476;-73
2021/08/06 06:59:19;;;;;;;5.70;2.80;;;;;;;19.37;86.85;98378.41;5032582;28;20229;-73
2021/08/06 07:01:46;;;;;;;3.53;2.25;;;;;;;19.45;85.72;98385.75;5032115;28;20242;-71
2021/08/06 07:04:12;;;;;;;5.85;2.38;;;;;;;19.24;86.36;98378.13;5032479;28;20193;-73
2021/08/06 07:06:39;;;;;;;4.70;2.60;;;;;;;19.57;87.17;98383.50;5024453;28;20191;-71
2021/08/06 07:09:10;;;;;;;5.07;2.75;;;;;;;20.03;82.13;98380.91;5012927;28;20625;-72
2021/08/06 07:11:37;;;;;;;4.20;2.40;;;;;;;19.99;80.98;98382.31;5028375;28;20297;-73
2021/08/06 07:14:03;;;;;;;3.00;2.17;;;;;;;20.02;81.50;98386.56;5020731;28;20524;-72
2021/08/06 07:16:30;;;;;;;3.73;2.63;;;;;;;20.02;82.17;98376.50;5012546;28;20496;-73
2021/08/06 07:18:57;;;;;;;3.83;3.00;;;;;;;20.15;81.96;98381.38;5012825;28;20428;-73
2021/08/06 07:21:24;;;;;;;2.67;2.10;;;;;;;19.80;81.29;98391.78;5012604;28;21009;-72
2021/08/06 07:23:51;;;;;;;6.17;2.27;;;;;;;19.85;81.49;98396.72;5015155;28;20449;-73
2021/08/06 07:26:19;;;;;;;5.10;2.60;;;;;;;19.51;85.61;98400.56;5026269;28;20502;-72
2021/08/06 07:28:46;;;;;;;5.83;2.60;;;;;;;19.56;86.12;98403.63;5030444;28;20444;-73
2021/08/06 07:31:15;;;;;;;4.38;2.47;;;;;;;19.69;86.44;98403.94;5035853;28;20863;-72
2021/08/06 07:33:41;;;;;;;3.47;2.80;;;;;;;19.90;84.68;98406.09;5031712;28;20229;-72
2021/08/06 07:36:08;;;;;;;2.70;2.50;;;;;;;20.00;83.11;98406.72;5035462;28;20549;-72
2021/08/06 07:38:35;;;;;;;3.63;2.10;;;;;;;19.93;82.83;98408.47;5035487;28;20441;-72
2021/08/06 07:41:01;;;;;;;4.27;2.70;;;;;;;20.18;81.90;98411.06;5035183;28;20535;-72
2021/08/06 07:43:29;;;;;;;4.17;1.60;;;;;;;20.25;80.39;98419.41;5019650;28;20452;-73
2021/08/06 07:45:56;;;;;;;3.90;2.07;;;;;;;20.14;80.46;98418.75;5016315;28;20499;-73
2021/08/06 07:48:23;;;;;;;3.90;2.30;;;;;;;20.68;78.50;98425.28;5015914;28;20773;-71
2021/08/06 07:50:49;;;;;;;2.73;2.10;;;;;;;20.60;77.07;98431.69;5015834;28;20463;-72
2021/08/06 07:53:16;;;;;;;3.10;1.97;;;;;;;20.33;78.38;98439.34;5015640;28;20457;-72
2021/08/06 07:55:43;;;;;;;2.33;1.63;;;;;;;20.48;77.50;98436.66;5015310;28;20445;-72
2021/08/06 07:58:09;;;;;;;2.77;2.00;;;;;;;20.05;78.74;98440.84;5015307;28;20560;-74
2021/08/06 08:00:37;;;;;;;2.90;1.87;;;;;;;20.16;79.75;98437.72;5016027;28;20464;-73
2021/08/06 08:03:04;;;;;;;2.20;1.70;;;;;;;20.06;80.28;98448.00;5021534;28;20479;-73
2021/08/06 08:05:31;;;;;;;8.00;2.20;;;;;;;20.17;78.94;98445.75;5034819;28;20439;-71
2021/08/06 08:07:57;;;;;;;2.27;1.63;;;;;;;20.32;78.54;98451.28;5035101;28;20460;-72
2021/08/06 08:10:24;;;;;;;1.90;1.70;;;;;;;20.36;78.25;98451.78;5035246;28;20886;-72
2021/08/06 08:12:51;;;;;;;2.60;1.70;;;;;;;21.06;75.09;98450.81;5034921;28;20448;-72
2021/08/06 08:15:17;;;;;;;3.30;2.13;;;;;;;20.87;74.98;98445.81;5034910;28;20497;-72
2021/08/06 08:17:45;;;;;;;4.63;2.23;;;;;;;20.99;75.27;98444.38;5034896;28;20903;-72
2021/08/06 08:20:12;;;;;;;8.70;2.33;;;;;;;21.11;74.08;98442.88;5034795;28;20439;-71
2021/08/06 08:22:39;;;;;;;4.13;2.10;;;;;;;20.96;73.28;98447.47;5029757;28;20784;-72
2021/08/06 08:25:08;;;;;;;3.30;1.90;;;;;;;20.96;73.53;98450.19;5015406;28;20781;-72
2021/08/06 08:27:35;;;;;;;4.30;2.10;;;;;;;21.24;71.18;98454.06;5014471;28;20429;-71
2021/08/06 08:30:02;;;;;;;5.10;3.00;;;;;;;21.06;72.87;98455.44;5014597;28;20449;-71
2021/08/06 08:32:28;;;;;;;5.90;2.80;;;;;;;21.26;72.27;98453.03;5014817;28;20537;-71
2021/08/06 08:34:57;;;;;;;3.77;2.50;;;;;;;21.50;71.33;98465.66;5014637;28;20520;-73
2021/08/06 08:37:23;;;;;;;3.83;2.43;;;;;;;21.85;71.39;98458.59;5021087;28;20560;-71
2021/08/06 08:39:50;;;;;;;6.73;2.43;;;;;;;22.27;68.99;98471.66;5034800;28;20927;-73
2021/08/06 08:42:18;;;;;;;4.03;2.00;;;;;;;22.11;68.31;98466.31;5034407;28;20428;-73
2021/08/06 08:44:44;;;;;;;2.57;1.63;;;;;;;21.94;68.55;98459.38;5034299;28;20445;-72
2021/08/06 08:47:13;;;;;;;6.10;2.63;;;;;;;21.77;69.88;98469.66;5034389;28;20512;-74
2021/08/06 08:49:40;;;;;;;2.77;1.60;;;;;;;21.69;68.39;98472.50;5034185;28;20425;-73
2021/08/06 08:52:08;;;;;;;3.10;2.27;;;;;;;21.91;65.17;98476.16;5032321;28;20536;-73
2021/08/06 08:54:37;;;;;;;3.90;1.40;;;;;;;21.58;66.58;98468.31;5025466;28;20434;-73
2021/08/06 08:57:04;;;;;;;3.00;1.77;;;;;;;21.19;68.65;98467.47;5013937;28;20829;-71
2021/08/06 08:59:31;;;;;;;2.50;1.33;;;;;;;20.82;67.98;98476.47;5013463;28;20433;-72
2021/08/06 09:01:57;;;;;;;3.17;2.43;;;;;;;20.69;70.92;98470.75;5017205;28;20565;-73
2021/08/06 09:04:27;;;;;;;3.23;1.90;;;;;;;20.53;71.51;98480.75;5014116;28;20436;-73
2021/08/06 09:06:54;;;;;;;3.03;1.70;;;;;;;20.46;70.83;98477.00;5014483;28;20432;-72
2021/08/06 09:09:26;;;;;;;4.43;1.50;;;;;;;20.59;70.18;98479.19;5014128;28;20509;-73
2021/08/06 09:12:05;;;;;;;5.60;1.70;;;;;;;21.08;68.35;98489.78;5013947;28;20429;-72
2021/08/06 09:14:37;;;;;;;2.33;1.60;;;;;;;21.42;65.86;98486.59;5016156;28;20429;-72
2021/08/06 09:17:07;;;;;;;1.53;1.40;;;;;;;21.27;66.02;98482.09;5014008;28;20999;-72
2021/08/06 09:19:35;;;;;;;4.17;1.23;;;;;;;20.94;66.56;98480.50;5016474;28;20433;-73
2021/08/06 09:22:15;;;;;;;2.07;1.17;;;;;;;21.07;65.84;98466.19;5031690;28;20455;-72
2021/08/06 09:25:00;;;;;;;6.53;1.53;;;;;;;21.54;63.99;98467.81;5033683;28;20432;-70
2021/08/06 09:27:28;;;;;;;2.70;1.10;;;;;;;21.48;62.50;98470.47;5032635;28;20424;-72
2021/08/06 09:29:56;;;;;;;3.47;1.70;;;;;;;21.51;63.17;98470.09;5031876;28;20520;-72
2021/08/06 09:32:24;;;;;;;3.67;1.77;;;;;;;22.12;61.18;98473.53;5033631;28;20444;-73
2021/08/06 09:34:51;;;;;;;1.70;1.30;;;;;;;21.74;62.30;98470.88;5033181;28;20572;-73
2021/08/06 09:37:21;;;;;;;1.57;1.07;;;;;;;21.52;63.22;98472.63;5033032;28;20475;-72
2021/08/06 09:39:51;;;;;;;2.70;1.47;;;;;;;21.72;62.14;98472.94;5033589;28;20440;-73
2021/08/06 09:42:24;;;;;;;4.23;1.27;;;;;;;21.56;63.64;98473.13;5029558;28;20428;-73
2021/08/06 09:44:59;;;;;;;2.53;1.00;;;;;;;21.54;60.68;98467.81;5026077;28;20480;-71
2021/08/06 09:47:26;;;;;;;1.50;1.33;;;;;;;21.57;60.40;98470.22;5013351;28;20441;-72
2021/08/06 09:49:55;;;;;;;1.90;1.20;;;;;;;22.36;58.37;98472.34;5013825;28;20917;-72
2021/08/06 09:52:28;;;;;;;2.00;1.37;;;;;;;22.49;56.48;98461.56;5014063;28;20464;-71
2021/08/06 09:54:55;;;;;;;1.87;1.20;;;;;;;22.43;56.76;98475.19;5013386;28;20458;-72
2021/08/06 09:57:23;;;;;;;2.03;1.13;;;;;;;21.85;57.66;98470.41;5027852;28;20468;-72
2021/08/06 09:59:54;;;;;;;2.23;1.50;;;;;;;22.07;57.12;98470.50;5033081;28;20444;-72
2021/08/06 10:02:23;;;;;;;8.47;7.63;;;;;;;22.19;57.02;98471.72;5033065;28;20957;-74
2021/08/06 10:05:03;;;;;;;4.97;3.80;;;;;;;22.55;56.71;98461.84;5028594;28;20517;-72
2021/08/06 10:07:32;;;;;;;2.40;1.43;;;;;;;22.50;57.44;98478.88;5013352;28;20756;-73
2021/08/06 10:09:59;;;;;;;3.67;2.00;;;;;;;22.58;57.37;98477.91;5013047;28;20448;-71
2021/08/06 10:12:27;;;;;;;2.43;1.53;;;;;;;22.53;57.24;98459.28;5013420;28;20430;-72
2021/08/06 10:14:54;;;;;;;2.10;1.77;;;;;;;22.67;57.95;98463.03;5013383;28;20480;-73
2021/08/06 10:17:21;;;;;;;2.97;1.90;;;;;;;22.64;57.76;98467.00;5012685;28;20559;-73
2021/08/06 10:19:49;;;;;;;2.83;1.63;;;;;;;22.15;58.84;98462.16;5013031;28;20496;-73
2021/08/06 10:22:16;;;;;;;1.30;1.17;;;;;;;22.29;59.46;98463.22;5012863;28;20442;-74
2021/08/06 10:24:46;;;;;;;2.10;1.57;;;;;;;22.36;58.56;98472.34;5012832;28;20491;-73
2021/08/06 10:27:14;;;;;;;1.93;0.97;;;;;;;22.32;56.98;98467.44;5013283;28;20849;-74
2021/08/06 10:30:00;;;;;;;2.80;1.80;;;;;;;22.19;57.03;98466.22;5013035;28;20834;-73
2021/08/06 10:32:27;;;;;;;2.43;0.90;;;;;;;22.13;56.41;98475.19;5013079;28;20528;-73
2021/08/06 10:35:16;;;;;;;1.87;1.10;;;;;;;22.50;55.77;98470.66;5013293;28;20521;-73
2021/08/06 10:37:54;;;;;;;1.80;1.20;;;;;;;22.65;55.25;98471.44;5013712;28;20557;-74
2021/08/06 10:44:03;;;;;;;1.37;1.10;;;;;;;23.82;52.92;98458.38;5013117;28;20429;-72
2021/08/06 10:47:01;;;;;;;1.90;1.17;;;;;;;23.43;53.63;98457.84;5019026;28;20433;-74
2021/08/06 10:49:29;;;;;;;1.40;0.97;;;;;;;23.14;54.29;98466.28;5008574;28;20547;-72
2021/08/06 10:52:13;;;;;;;2.80;1.40;;;;;;;22.63;56.39;98459.81;5027515;28;20448;-72
2021/08/06 10:54:40;;;;;;;3.10;1.30;;;;;;;21.99;58.03;98467.84;5032814;28;20756;-71
2021/08/06 10:57:36;;;;;;;1.40;1.30;;;;;;;22.01;56.91;98479.47;5034335;28;20448;-72
2021/08/06 11:00:04;;;;;;;2.50;1.40;;;;;;;21.88;57.59;98471.06;5036907;28;20844;-73
2021/08/06 11:02:43;;;;;;;1.50;1.20;;;;;;;21.95;57.19;98463.78;5036107;28;20511;-72
2021/08/06 11:05:45;;;;;;;2.50;1.60;;;;;;;22.05;55.93;98475.31;5031358;28;20775;-71
2021/08/06 11:08:54;;;;;;;1.43;1.17;;;;;;;22.05;55.38;98467.09;5016744;28;20421;-72
2021/08/06 11:11:57;;;;;;;1.80;1.03;;;;;;;22.01;55.94;98484.97;5016094;28;20435;-73
2021/08/06 11:14:57;;;;;;;2.87;1.50;;;;;;;22.32;55.29;98483.91;5028387;28;20801;-72
2021/08/06 11:17:25;;;;;;;2.70;2.10;;;;;;;22.71;52.42;98468.97;5035812;28;20471;-72
2021/08/06 11:19:55;;;;;;;2.77;1.70;;;;;;;23.10;51.87;98466.66;5036402;28;20455;-72
2021/08/06 11:22:26;;;;;;;2.43;1.40;;;;;;;22.92;51.81;98470.88;5036255;28;20428;-72
2021/08/06 11:24:55;;;;;;;3.33;1.20;;;;;;;22.81;52.22;98478.56;5036088;28;20784;-72
2021/08/06 11:27:32;;;;;;;3.20;1.50;;;;;;;22.73;53.16;98473.22;5036275;28;20471;-72
2021/08/06 11:30:00;;;;;;;3.23;1.70;;;;;;;22.04;55.00;98471.72;5035562;28;20431;-72
2021/08/06 11:32:26;;;;;;;1.73;1.33;;;;;;;21.96;55.31;98468.25;5035689;28;20510;-72
2021/08/06 11:34:56;;;;;;;1.80;1.03;;;;;;;22.15;55.25;98469.53;5035897;28;20539;-72
2021/08/06 11:37:25;;;;;;;2.03;1.30;;;;;;;22.51;53.56;98458.63;5020277;28;20491;-72
2021/08/06 11:40:08;;;;;;;2.60;1.43;;;;;;;22.80;53.28;98456.84;5025978;28;20441;-72
2021/08/06 11:42:35;;;;;;;3.87;1.73;;;;;;;23.22;52.79;98461.50;5035364;28;20563;-74